sensor_id;sensor_type;location;lat;lon;timestamp;P1;durP1;ratioP1;P2;durP2;ratioP2
72132;SDS011;60008;50.826;6.896;2023-05-07T00:01:40;29.50;;;13.20;;
72132;SDS011;60008;50.826;6.896;2023-05-07T00:04:25;27.45;;;14.18;;
72132;SDS011;60008;50.826;6.896;2023-05-07T00:07:10;29.23;;;14.90;;
72132;SDS011;60008;50.826;6.896;2023-05-07T00:09:55;32.13;;;15.40;;
72132;SDS011;60008;50.826;6.896;2023-05-07T00:12:40;29.80;;;14.60;;
72132;SDS011;60008;50.826;6.896;2023-05-07T00:15:25;28.08;;;15.52;;
72132;SDS011;60008;50.826;6.896;2023-05-07T00:18:10;32.78;;;16.67;;
72132;SDS011;60008;50.826;6.896;2023-05-07T00:20:55;31.08;;;16.92;;
72132;SDS011;60008;50.826;6.896;2023-05-07T00:23:40;34.42;;;18.08;;
72132;SDS011;60008;50.826;6.896;2023-05-07T00:26:25;43.97;;;21.67;;
72132;SDS011;60008;50.826;6.896;2023-05-07T00:29:10;44.13;;;20.08;;
72132;SDS011;60008;50.826;6.896;2023-05-07T00:31:55;47.10;;;21.13;;
72132;SDS011;60008;50.826;6.896;2023-05-07T00:34:41;44.38;;;21.15;;
72132;SDS011;60008;50.826;6.896;2023-05-07T00:37:27;47.03;;;20.95;;
72132;SDS011;60008;50.826;6.896;2023-05-07T00:40:12;40.00;;;20.10;;
72132;SDS011;60008;50.826;6.896;2023-05-07T00:42:57;42.03;;;20.52;;
72132;SDS011;60008;50.826;6.896;2023-05-07T00:45:44;43.75;;;21.25;;
72132;SDS011;60008;50.826;6.896;2023-05-07T00:48:29;36.78;;;18.95;;
72132;SDS011;60008;50.826;6.896;2023-05-07T00:51:15;36.75;;;18.10;;
72132;SDS011;60008;50.826;6.896;2023-05-07T00:54:01;38.97;;;18.27;;
72132;SDS011;60008;50.826;6.896;2023-05-07T00:56:47;34.47;;;17.85;;
72132;SDS011;60008;50.826;6.896;2023-05-07T00:59:32;32.17;;;14.88;;
72132;SDS011;60008;50.826;6.896;2023-05-07T01:02:18;31.55;;;15.10;;
72132;SDS011;60008;50.826;6.896;2023-05-07T01:05:03;30.85;;;15.07;;
72132;SDS011;60008;50.826;6.896;2023-05-07T01:07:50;29.60;;;15.20;;
72132;SDS011;60008;50.826;6.896;2023-05-07T01:10:37;28.75;;;14.20;;
72132;SDS011;60008;50.826;6.896;2023-05-07T01:13:27;30.20;;;14.10;;
72132;SDS011;60008;50.826;6.896;2023-05-07T01:16:12;26.85;;;13.40;;
72132;SDS011;60008;50.826;6.896;2023-05-07T01:18:57;26.25;;;12.45;;
72132;SDS011;60008;50.826;6.896;2023-05-07T01:21:46;27.20;;;13.10;;
72132;SDS011;60008;50.826;6.896;2023-05-07T01:24:33;27.42;;;12.95;;
72132;SDS011;60008;50.826;6.896;2023-05-07T01:27:20;24.80;;;11.98;;
72132;SDS011;60008;50.826;6.896;2023-05-07T01:30:05;24.70;;;11.88;;
72132;SDS011;60008;50.826;6.896;2023-05-07T01:32:52;27.02;;;12.38;;
72132;SDS011;60008;50.826;6.896;2023-05-07T01:35:45;20.23;;;10.90;;
72132;SDS011;60008;50.826;6.896;2023-05-07T01:38:32;21.17;;;9.68;;
72132;SDS011;60008;50.826;6.896;2023-05-07T01:41:18;16.98;;;9.88;;
72132;SDS011;60008;50.826;6.896;2023-05-07T01:44:04;18.85;;;10.05;;
72132;SDS011;60008;50.826;6.896;2023-05-07T01:46:51;19.52;;;10.02;;
72132;SDS011;60008;50.826;6.896;2023-05-07T01:49:36;17.73;;;9.57;;
72132;SDS011;60008;50.826;6.896;2023-05-07T01:52:21;17.92;;;9.25;;
72132;SDS011;60008;50.826;6.896;2023-05-07T01:55:07;18.92;;;9.57;;
72132;SDS011;60008;50.826;6.896;2023-05-07T01:57:52;19.20;;;9.10;;
72132;SDS011;60008;50.826;6.896;2023-05-07T02:00:37;18.27;;;9.95;;
72132;SDS011;60008;50.826;6.896;2023-05-07T02:03:22;22.13;;;9.73;;
72132;SDS011;60008;50.826;6.896;2023-05-07T02:06:07;19.55;;;9.85;;
72132;SDS011;60008;50.826;6.896;2023-05-07T02:08:52;18.23;;;9.65;;
72132;SDS011;60008;50.826;6.896;2023-05-07T02:11:37;16.08;;;8.48;;
72132;SDS011;60008;50.826;6.896;2023-05-07T02:14:22;15.20;;;8.35;;
72132;SDS011;60008;50.826;6.896;2023-05-07T02:17:07;21.23;;;8.33;;
72132;SDS011;60008;50.826;6.896;2023-05-07T02:19:52;14.88;;;7.72;;
72132;SDS011;60008;50.826;6.896;2023-05-07T02:22:36;16.75;;;8.13;;
72132;SDS011;60008;50.826;6.896;2023-05-07T02:25:21;16.50;;;7.50;;
72132;SDS011;60008;50.826;6.896;2023-05-07T02:28:06;14.45;;;7.38;;
72132;SDS011;60008;50.826;6.896;2023-05-07T02:30:52;15.67;;;7.40;;
72132;SDS011;60008;50.826;6.896;2023-05-07T02:33:37;13.02;;;7.18;;
72132;SDS011;60008;50.826;6.896;2023-05-07T02:36:22;15.13;;;7.25;;
72132;SDS011;60008;50.826;6.896;2023-05-07T02:39:07;15.13;;;6.65;;
72132;SDS011;60008;50.826;6.896;2023-05-07T02:41:52;12.73;;;6.88;;
72132;SDS011;60008;50.826;6.896;2023-05-07T02:44:37;11.57;;;6.53;;
72132;SDS011;60008;50.826;6.896;2023-05-07T02:47:22;12.55;;;6.90;;
72132;SDS011;60008;50.826;6.896;2023-05-07T02:50:07;14.70;;;7.35;;
72132;SDS011;60008;50.826;6.896;2023-05-07T02:52:52;12.57;;;6.65;;
72132;SDS011;60008;50.826;6.896;2023-05-07T02:55:38;13.07;;;6.78;;
72132;SDS011;60008;50.826;6.896;2023-05-07T02:58:23;13.43;;;6.60;;
72132;SDS011;60008;50.826;6.896;2023-05-07T03:01:08;12.57;;;6.47;;
72132;SDS011;60008;50.826;6.896;2023-05-07T03:03:53;13.55;;;6.35;;
72132;SDS011;60008;50.826;6.896;2023-05-07T03:06:39;11.93;;;6.22;;
72132;SDS011;60008;50.826;6.896;2023-05-07T03:09:24;11.57;;;5.50;;
72132;SDS011;60008;50.826;6.896;2023-05-07T03:12:09;13.63;;;5.50;;
72132;SDS011;60008;50.826;6.896;2023-05-07T03:14:54;10.50;;;5.10;;
72132;SDS011;60008;50.826;6.896;2023-05-07T03:17:39;9.10;;;4.90;;
72132;SDS011;60008;50.826;6.896;2023-05-07T03:20:25;11.38;;;5.10;;
72132;SDS011;60008;50.826;6.896;2023-05-07T03:23:10;9.10;;;5.05;;
72132;SDS011;60008;50.826;6.896;2023-05-07T03:25:55;9.63;;;4.73;;
72132;SDS011;60008;50.826;6.896;2023-05-07T03:28:40;7.88;;;4.40;;
72132;SDS011;60008;50.826;6.896;2023-05-07T03:31:25;8.98;;;5.15;;
72132;SDS011;60008;50.826;6.896;2023-05-07T03:34:10;14.27;;;4.80;;
72132;SDS011;60008;50.826;6.896;2023-05-07T03:36:55;7.80;;;4.85;;
72132;SDS011;60008;50.826;6.896;2023-05-07T03:39:40;7.83;;;4.40;;
72132;SDS011;60008;50.826;6.896;2023-05-07T03:42:25;9.27;;;4.97;;
72132;SDS011;60008;50.826;6.896;2023-05-07T03:45:10;8.98;;;4.70;;
72132;SDS011;60008;50.826;6.896;2023-05-07T03:47:55;11.15;;;5.10;;
72132;SDS011;60008;50.826;6.896;2023-05-07T03:50:40;10.75;;;4.75;;
72132;SDS011;60008;50.826;6.896;2023-05-07T03:53:25;8.40;;;4.37;;
72132;SDS011;60008;50.826;6.896;2023-05-07T03:56:10;8.93;;;4.28;;
72132;SDS011;60008;50.826;6.896;2023-05-07T03:58:55;10.10;;;4.97;;
72132;SDS011;60008;50.826;6.896;2023-05-07T04:01:40;8.18;;;5.15;;
72132;SDS011;60008;50.826;6.896;2023-05-07T04:04:25;9.73;;;5.60;;
72132;SDS011;60008;50.826;6.896;2023-05-07T04:07:10;10.30;;;5.73;;
72132;SDS011;60008;50.826;6.896;2023-05-07T04:09:55;14.25;;;5.55;;
72132;SDS011;60008;50.826;6.896;2023-05-07T04:12:40;11.38;;;5.38;;
72132;SDS011;60008;50.826;6.896;2023-05-07T04:15:25;9.10;;;5.43;;
72132;SDS011;60008;50.826;6.896;2023-05-07T04:18:10;11.55;;;5.72;;
72132;SDS011;60008;50.826;6.896;2023-05-07T04:20:55;10.97;;;5.30;;
72132;SDS011;60008;50.826;6.896;2023-05-07T04:23:40;9.10;;;5.22;;
72132;SDS011;60008;50.826;6.896;2023-05-07T04:26:25;12.25;;;5.57;;
72132;SDS011;60008;50.826;6.896;2023-05-07T04:29:10;10.93;;;5.63;;
72132;SDS011;60008;50.826;6.896;2023-05-07T04:31:56;9.98;;;5.53;;
72132;SDS011;60008;50.826;6.896;2023-05-07T04:34:41;12.30;;;5.10;;
72132;SDS011;60008;50.826;6.896;2023-05-07T04:37:26;9.98;;;5.32;;
72132;SDS011;60008;50.826;6.896;2023-05-07T04:40:11;9.35;;;5.40;;
72132;SDS011;60008;50.826;6.896;2023-05-07T04:42:56;10.30;;;5.10;;
72132;SDS011;60008;50.826;6.896;2023-05-07T04:45:41;8.30;;;5.20;;
72132;SDS011;60008;50.826;6.896;2023-05-07T04:48:26;9.90;;;5.27;;
72132;SDS011;60008;50.826;6.896;2023-05-07T04:51:12;8.02;;;4.97;;
72132;SDS011;60008;50.826;6.896;2023-05-07T04:53:57;8.30;;;5.07;;
72132;SDS011;60008;50.826;6.896;2023-05-07T04:56:42;8.63;;;4.95;;
72132;SDS011;60008;50.826;6.896;2023-05-07T04:59:27;8.85;;;4.90;;
72132;SDS011;60008;50.826;6.896;2023-05-07T05:02:12;8.20;;;4.87;;
72132;SDS011;60008;50.826;6.896;2023-05-07T05:04:57;9.90;;;5.18;;
72132;SDS011;60008;50.826;6.896;2023-05-07T05:07:42;18.67;;;4.93;;
72132;SDS011;60008;50.826;6.896;2023-05-07T05:10:27;10.50;;;4.78;;
72132;SDS011;60008;50.826;6.896;2023-05-07T05:13:12;11.60;;;5.18;;
72132;SDS011;60008;50.826;6.896;2023-05-07T05:15:57;9.47;;;5.03;;
72132;SDS011;60008;50.826;6.896;2023-05-07T05:18:42;9.20;;;5.13;;
72132;SDS011;60008;50.826;6.896;2023-05-07T05:21:27;9.32;;;4.88;;
72132;SDS011;60008;50.826;6.896;2023-05-07T05:24:12;12.05;;;7.97;;
72132;SDS011;60008;50.826;6.896;2023-05-07T05:26:57;11.82;;;6.30;;
72132;SDS011;60008;50.826;6.896;2023-05-07T05:29:44;9.50;;;5.60;;
72132;SDS011;60008;50.826;6.896;2023-05-07T05:32:30;10.80;;;7.20;;
72132;SDS011;60008;50.826;6.896;2023-05-07T05:35:14;12.23;;;7.30;;
72132;SDS011;60008;50.826;6.896;2023-05-07T05:37:59;9.98;;;6.78;;
72132;SDS011;60008;50.826;6.896;2023-05-07T05:40:44;9.55;;;5.03;;
72132;SDS011;60008;50.826;6.896;2023-05-07T05:43:29;12.73;;;5.90;;
72132;SDS011;60008;50.826;6.896;2023-05-07T05:46:15;8.43;;;5.70;;
72132;SDS011;60008;50.826;6.896;2023-05-07T05:49:00;9.73;;;5.05;;
72132;SDS011;60008;50.826;6.896;2023-05-07T05:51:45;8.68;;;4.32;;
72132;SDS011;60008;50.826;6.896;2023-05-07T05:54:30;11.40;;;5.97;;
72132;SDS011;60008;50.826;6.896;2023-05-07T05:57:15;11.93;;;5.93;;
72132;SDS011;60008;50.826;6.896;2023-05-07T06:00:01;8.23;;;5.13;;
72132;SDS011;60008;50.826;6.896;2023-05-07T06:02:47;7.03;;;4.55;;
72132;SDS011;60008;50.826;6.896;2023-05-07T06:05:33;6.32;;;3.60;;
72132;SDS011;60008;50.826;6.896;2023-05-07T06:08:17;5.55;;;3.42;;
72132;SDS011;60008;50.826;6.896;2023-05-07T06:11:03;7.80;;;3.87;;
72132;SDS011;60008;50.826;6.896;2023-05-07T06:13:48;6.07;;;3.35;;
72132;SDS011;60008;50.826;6.896;2023-05-07T06:16:33;8.88;;;4.10;;
72132;SDS011;60008;50.826;6.896;2023-05-07T06:19:18;7.53;;;4.40;;
72132;SDS011;60008;50.826;6.896;2023-05-07T06:22:07;7.95;;;3.92;;
72132;SDS011;60008;50.826;6.896;2023-05-07T06:24:52;8.90;;;3.20;;
72132;SDS011;60008;50.826;6.896;2023-05-07T06:27:37;5.88;;;3.03;;
72132;SDS011;60008;50.826;6.896;2023-05-07T06:30:24;7.20;;;2.90;;
72132;SDS011;60008;50.826;6.896;2023-05-07T06:33:09;7.72;;;3.08;;
72132;SDS011;60008;50.826;6.896;2023-05-07T06:35:54;6.50;;;3.20;;
72132;SDS011;60008;50.826;6.896;2023-05-07T06:38:39;6.37;;;3.37;;
72132;SDS011;60008;50.826;6.896;2023-05-07T06:41:24;5.22;;;3.10;;
72132;SDS011;60008;50.826;6.896;2023-05-07T06:44:10;6.65;;;3.60;;
72132;SDS011;60008;50.826;6.896;2023-05-07T06:46:56;8.32;;;3.42;;
72132;SDS011;60008;50.826;6.896;2023-05-07T06:49:41;4.65;;;3.08;;
72132;SDS011;60008;50.826;6.896;2023-05-07T06:52:26;9.00;;;3.00;;
72132;SDS011;60008;50.826;6.896;2023-05-07T06:55:11;6.78;;;2.35;;
72132;SDS011;60008;50.826;6.896;2023-05-07T06:57:56;9.77;;;2.20;;
72132;SDS011;60008;50.826;6.896;2023-05-07T07:00:45;5.00;;;2.17;;
72132;SDS011;60008;50.826;6.896;2023-05-07T07:03:30;4.70;;;2.42;;
72132;SDS011;60008;50.826;6.896;2023-05-07T07:06:15;4.43;;;2.90;;
72132;SDS011;60008;50.826;6.896;2023-05-07T07:09:01;4.60;;;2.70;;
72132;SDS011;60008;50.826;6.896;2023-05-07T07:11:45;4.80;;;2.25;;
72132;SDS011;60008;50.826;6.896;2023-05-07T07:14:31;5.60;;;2.75;;
72132;SDS011;60008;50.826;6.896;2023-05-07T07:17:15;7.45;;;3.65;;
72132;SDS011;60008;50.826;6.896;2023-05-07T07:20:00;6.30;;;2.70;;
72132;SDS011;60008;50.826;6.896;2023-05-07T07:22:45;5.65;;;2.72;;
72132;SDS011;60008;50.826;6.896;2023-05-07T07:25:30;3.85;;;2.10;;
72132;SDS011;60008;50.826;6.896;2023-05-07T07:28:16;5.25;;;2.50;;
72132;SDS011;60008;50.826;6.896;2023-05-07T07:31:01;6.90;;;3.80;;
72132;SDS011;60008;50.826;6.896;2023-05-07T07:33:46;4.20;;;2.30;;
72132;SDS011;60008;50.826;6.896;2023-05-07T07:36:31;6.65;;;2.50;;
72132;SDS011;60008;50.826;6.896;2023-05-07T07:39:29;4.72;;;2.60;;
72132;SDS011;60008;50.826;6.896;2023-05-07T07:42:14;5.57;;;3.10;;
72132;SDS011;60008;50.826;6.896;2023-05-07T07:44:59;4.80;;;2.35;;
72132;SDS011;60008;50.826;6.896;2023-05-07T07:47:44;5.33;;;2.60;;
72132;SDS011;60008;50.826;6.896;2023-05-07T07:50:29;4.78;;;2.30;;
72132;SDS011;60008;50.826;6.896;2023-05-07T07:53:28;4.47;;;2.45;;
72132;SDS011;60008;50.826;6.896;2023-05-07T07:56:15;3.65;;;2.17;;
72132;SDS011;60008;50.826;6.896;2023-05-07T07:59:01;4.05;;;2.38;;
72132;SDS011;60008;50.826;6.896;2023-05-07T08:01:47;6.03;;;2.17;;
72132;SDS011;60008;50.826;6.896;2023-05-07T08:04:37;4.00;;;2.20;;
72132;SDS011;60008;50.826;6.896;2023-05-07T08:07:22;8.73;;;2.75;;
72132;SDS011;60008;50.826;6.896;2023-05-07T08:10:07;5.80;;;2.30;;
72132;SDS011;60008;50.826;6.896;2023-05-07T08:12:53;4.53;;;2.38;;
72132;SDS011;60008;50.826;6.896;2023-05-07T08:15:38;6.67;;;3.60;;
72132;SDS011;60008;50.826;6.896;2023-05-07T08:18:23;6.75;;;3.47;;
72132;SDS011;60008;50.826;6.896;2023-05-07T08:21:09;3.97;;;2.20;;
72132;SDS011;60008;50.826;6.896;2023-05-07T08:23:55;4.68;;;2.03;;
72132;SDS011;60008;50.826;6.896;2023-05-07T08:26:40;4.50;;;2.05;;
72132;SDS011;60008;50.826;6.896;2023-05-07T08:29:25;4.67;;;2.20;;
72132;SDS011;60008;50.826;6.896;2023-05-07T08:32:09;3.75;;;2.20;;
72132;SDS011;60008;50.826;6.896;2023-05-07T08:34:55;3.47;;;2.22;;
72132;SDS011;60008;50.826;6.896;2023-05-07T08:37:40;4.43;;;2.00;;
72132;SDS011;60008;50.826;6.896;2023-05-07T08:40:25;7.43;;;2.30;;
72132;SDS011;60008;50.826;6.896;2023-05-07T08:43:12;5.03;;;2.83;;
72132;SDS011;60008;50.826;6.896;2023-05-07T08:46:00;3.33;;;2.15;;
72132;SDS011;60008;50.826;6.896;2023-05-07T08:48:50;3.33;;;2.10;;
72132;SDS011;60008;50.826;6.896;2023-05-07T08:51:36;3.83;;;2.00;;
72132;SDS011;60008;50.826;6.896;2023-05-07T08:54:21;3.90;;;2.00;;
72132;SDS011;60008;50.826;6.896;2023-05-07T08:57:06;6.80;;;4.63;;
72132;SDS011;60008;50.826;6.896;2023-05-07T08:59:51;5.85;;;3.20;;
72132;SDS011;60008;50.826;6.896;2023-05-07T09:02:36;4.40;;;2.35;;
72132;SDS011;60008;50.826;6.896;2023-05-07T09:05:22;4.35;;;2.38;;
72132;SDS011;60008;50.826;6.896;2023-05-07T09:08:07;4.90;;;2.28;;
72132;SDS011;60008;50.826;6.896;2023-05-07T09:10:53;5.43;;;2.50;;
72132;SDS011;60008;50.826;6.896;2023-05-07T09:13:38;4.45;;;1.90;;
72132;SDS011;60008;50.826;6.896;2023-05-07T09:16:23;3.65;;;2.30;;
72132;SDS011;60008;50.826;6.896;2023-05-07T09:19:09;2.60;;;1.90;;
72132;SDS011;60008;50.826;6.896;2023-05-07T09:22:01;3.67;;;2.25;;
72132;SDS011;60008;50.826;6.896;2023-05-07T09:24:48;4.00;;;2.43;;
72132;SDS011;60008;50.826;6.896;2023-05-07T09:27:33;3.75;;;2.20;;
72132;SDS011;60008;50.826;6.896;2023-05-07T09:30:18;3.97;;;2.00;;
72132;SDS011;60008;50.826;6.896;2023-05-07T09:33:03;4.55;;;2.00;;
72132;SDS011;60008;50.826;6.896;2023-05-07T09:35:51;3.05;;;1.63;;
72132;SDS011;60008;50.826;6.896;2023-05-07T09:38:37;4.37;;;2.17;;
72132;SDS011;60008;50.826;6.896;2023-05-07T09:41:22;3.22;;;1.80;;
72132;SDS011;60008;50.826;6.896;2023-05-07T09:44:08;3.42;;;1.80;;
72132;SDS011;60008;50.826;6.896;2023-05-07T09:46:54;3.95;;;1.90;;
72132;SDS011;60008;50.826;6.896;2023-05-07T09:49:40;3.20;;;2.30;;
72132;SDS011;60008;50.826;6.896;2023-05-07T09:52:27;2.77;;;1.90;;
72132;SDS011;60008;50.826;6.896;2023-05-07T09:55:17;3.05;;;1.90;;
72132;SDS011;60008;50.826;6.896;2023-05-07T09:58:03;4.90;;;2.28;;
72132;SDS011;60008;50.826;6.896;2023-05-07T10:00:50;3.42;;;2.20;;
72132;SDS011;60008;50.826;6.896;2023-05-07T10:03:36;5.78;;;2.70;;
72132;SDS011;60008;50.826;6.896;2023-05-07T10:06:21;3.33;;;2.27;;
72132;SDS011;60008;50.826;6.896;2023-05-07T10:09:07;4.47;;;2.20;;
72132;SDS011;60008;50.826;6.896;2023-05-07T10:11:52;2.97;;;1.90;;
72132;SDS011;60008;50.826;6.896;2023-05-07T10:14:39;4.97;;;1.98;;
72132;SDS011;60008;50.826;6.896;2023-05-07T10:17:24;3.47;;;2.30;;
72132;SDS011;60008;50.826;6.896;2023-05-07T10:20:10;3.23;;;1.90;;
72132;SDS011;60008;50.826;6.896;2023-05-07T10:22:55;4.93;;;2.08;;
72132;SDS011;60008;50.826;6.896;2023-05-07T10:25:43;6.57;;;2.90;;
72132;SDS011;60008;50.826;6.896;2023-05-07T10:28:28;3.78;;;2.20;;
72132;SDS011;60008;50.826;6.896;2023-05-07T10:34:17;3.27;;;2.10;;
72132;SDS011;60008;50.826;6.896;2023-05-07T10:37:10;3.03;;;2.08;;
72132;SDS011;60008;50.826;6.896;2023-05-07T10:39:56;3.72;;;2.08;;
72132;SDS011;60008;50.826;6.896;2023-05-07T10:43:03;3.38;;;1.85;;
72132;SDS011;60008;50.826;6.896;2023-05-07T10:51:45;2.80;;;1.80;;
72132;SDS011;60008;50.826;6.896;2023-05-07T10:58:18;4.68;;;2.38;;
72132;SDS011;60008;50.826;6.896;2023-05-07T11:01:14;3.78;;;2.15;;
72132;SDS011;60008;50.826;6.896;2023-05-07T11:04:12;3.20;;;2.23;;
72132;SDS011;60008;50.826;6.896;2023-05-07T11:09:58;3.67;;;2.10;;
72132;SDS011;60008;50.826;6.896;2023-05-07T11:12:46;2.20;;;1.48;;
72132;SDS011;60008;50.826;6.896;2023-05-07T11:15:33;3.28;;;1.80;;
72132;SDS011;60008;50.826;6.896;2023-05-07T11:18:22;2.63;;;1.70;;
72132;SDS011;60008;50.826;6.896;2023-05-07T11:21:07;4.72;;;1.77;;
72132;SDS011;60008;50.826;6.896;2023-05-07T11:26:44;4.82;;;2.25;;
72132;SDS011;60008;50.826;6.896;2023-05-07T11:29:31;5.13;;;1.98;;
72132;SDS011;60008;50.826;6.896;2023-05-07T11:32:22;4.20;;;2.00;;
72132;SDS011;60008;50.826;6.896;2023-05-07T11:35:07;2.42;;;1.58;;
72132;SDS011;60008;50.826;6.896;2023-05-07T11:37:57;2.67;;;1.80;;
72132;SDS011;60008;50.826;6.896;2023-05-07T11:43:36;2.92;;;1.80;;
72132;SDS011;60008;50.826;6.896;2023-05-07T11:46:21;2.20;;;1.60;;
72132;SDS011;60008;50.826;6.896;2023-05-07T11:49:06;3.28;;;1.70;;
72132;SDS011;60008;50.826;6.896;2023-05-07T11:51:51;2.63;;;1.73;;
72132;SDS011;60008;50.826;6.896;2023-05-07T11:54:37;3.50;;;1.95;;
72132;SDS011;60008;50.826;6.896;2023-05-07T11:57:26;3.47;;;1.70;;
72132;SDS011;60008;50.826;6.896;2023-05-07T12:00:11;3.90;;;1.60;;
72132;SDS011;60008;50.826;6.896;2023-05-07T12:03:04;4.22;;;1.75;;
72132;SDS011;60008;50.826;6.896;2023-05-07T12:05:49;6.28;;;1.98;;
72132;SDS011;60008;50.826;6.896;2023-05-07T12:08:38;3.15;;;1.85;;
72132;SDS011;60008;50.826;6.896;2023-05-07T12:11:25;2.10;;;1.40;;
72132;SDS011;60008;50.826;6.896;2023-05-07T12:14:10;4.50;;;2.10;;
72132;SDS011;60008;50.826;6.896;2023-05-07T12:16:56;2.35;;;1.40;;
72132;SDS011;60008;50.826;6.896;2023-05-07T12:19:42;3.05;;;1.90;;
72132;SDS011;60008;50.826;6.896;2023-05-07T12:22:28;3.15;;;1.40;;
72132;SDS011;60008;50.826;6.896;2023-05-07T12:25:13;3.85;;;1.88;;
72132;SDS011;60008;50.826;6.896;2023-05-07T12:28:04;3.50;;;1.60;;
72132;SDS011;60008;50.826;6.896;2023-05-07T12:30:50;4.13;;;1.60;;
72132;SDS011;60008;50.826;6.896;2023-05-07T12:33:35;2.70;;;1.70;;
72132;SDS011;60008;50.826;6.896;2023-05-07T12:36:20;3.85;;;1.63;;
72132;SDS011;60008;50.826;6.896;2023-05-07T12:39:06;3.17;;;1.60;;
72132;SDS011;60008;50.826;6.896;2023-05-07T12:41:54;4.03;;;1.60;;
72132;SDS011;60008;50.826;6.896;2023-05-07T12:44:40;2.88;;;1.67;;
72132;SDS011;60008;50.826;6.896;2023-05-07T12:47:26;4.93;;;2.13;;
72132;SDS011;60008;50.826;6.896;2023-05-07T12:50:11;5.50;;;1.40;;
72132;SDS011;60008;50.826;6.896;2023-05-07T12:52:56;4.97;;;1.77;;
72132;SDS011;60008;50.826;6.896;2023-05-07T12:55:46;5.03;;;1.80;;
72132;SDS011;60008;50.826;6.896;2023-05-07T12:58:35;4.85;;;1.80;;
72132;SDS011;60008;50.826;6.896;2023-05-07T13:01:20;3.58;;;1.77;;
72132;SDS011;60008;50.826;6.896;2023-05-07T13:04:06;5.50;;;1.67;;
72132;SDS011;60008;50.826;6.896;2023-05-07T13:06:51;3.38;;;2.03;;
72132;SDS011;60008;50.826;6.896;2023-05-07T13:09:36;4.43;;;2.03;;
72132;SDS011;60008;50.826;6.896;2023-05-07T13:12:21;4.57;;;2.50;;
72132;SDS011;60008;50.826;6.896;2023-05-07T13:15:06;5.18;;;2.70;;
72132;SDS011;60008;50.826;6.896;2023-05-07T13:17:51;5.32;;;3.13;;
72132;SDS011;60008;50.826;6.896;2023-05-07T13:20:37;4.35;;;2.60;;
72132;SDS011;60008;50.826;6.896;2023-05-07T13:23:21;3.27;;;1.90;;
72132;SDS011;60008;50.826;6.896;2023-05-07T13:26:06;2.88;;;1.70;;
72132;SDS011;60008;50.826;6.896;2023-05-07T13:29:09;4.10;;;1.90;;
72132;SDS011;60008;50.826;6.896;2023-05-07T13:31:54;5.85;;;2.10;;
72132;SDS011;60008;50.826;6.896;2023-05-07T13:34:41;3.22;;;1.65;;
72132;SDS011;60008;50.826;6.896;2023-05-07T13:37:26;4.47;;;2.07;;
72132;SDS011;60008;50.826;6.896;2023-05-07T13:40:11;2.50;;;1.45;;
72132;SDS011;60008;50.826;6.896;2023-05-07T13:42:57;4.65;;;1.85;;
72132;SDS011;60008;50.826;6.896;2023-05-07T13:45:46;4.80;;;2.10;;
72132;SDS011;60008;50.826;6.896;2023-05-07T13:48:31;3.50;;;2.42;;
72132;SDS011;60008;50.826;6.896;2023-05-07T13:51:16;9.23;;;2.70;;
72132;SDS011;60008;50.826;6.896;2023-05-07T13:54:01;5.15;;;2.78;;
72132;SDS011;60008;50.826;6.896;2023-05-07T13:56:47;5.15;;;2.50;;
72132;SDS011;60008;50.826;6.896;2023-05-07T13:59:33;3.55;;;2.25;;
72132;SDS011;60008;50.826;6.896;2023-05-07T14:02:18;3.63;;;2.33;;
72132;SDS011;60008;50.826;6.896;2023-05-07T14:05:03;4.80;;;2.83;;
72132;SDS011;60008;50.826;6.896;2023-05-07T14:07:50;8.20;;;3.75;;
72132;SDS011;60008;50.826;6.896;2023-05-07T14:10:36;12.63;;;8.13;;
72132;SDS011;60008;50.826;6.896;2023-05-07T14:13:21;7.45;;;3.90;;
72132;SDS011;60008;50.826;6.896;2023-05-07T14:16:06;7.90;;;3.10;;
72132;SDS011;60008;50.826;6.896;2023-05-07T14:18:51;6.20;;;3.37;;
72132;SDS011;60008;50.826;6.896;2023-05-07T14:21:36;5.43;;;3.20;;
72132;SDS011;60008;50.826;6.896;2023-05-07T14:24:21;9.52;;;3.83;;
72132;SDS011;60008;50.826;6.896;2023-05-07T14:27:22;6.40;;;3.90;;
72132;SDS011;60008;50.826;6.896;2023-05-07T14:30:07;7.05;;;4.03;;
72132;SDS011;60008;50.826;6.896;2023-05-07T14:32:52;6.60;;;3.83;;
72132;SDS011;60008;50.826;6.896;2023-05-07T14:35:38;7.15;;;4.90;;
72132;SDS011;60008;50.826;6.896;2023-05-07T14:38:23;8.88;;;5.03;;
72132;SDS011;60008;50.826;6.896;2023-05-07T14:41:08;8.27;;;4.43;;
72132;SDS011;60008;50.826;6.896;2023-05-07T14:43:53;7.38;;;4.47;;
72132;SDS011;60008;50.826;6.896;2023-05-07T14:46:38;8.77;;;5.00;;
72132;SDS011;60008;50.826;6.896;2023-05-07T14:49:23;11.05;;;4.95;;
72132;SDS011;60008;50.826;6.896;2023-05-07T14:52:08;7.40;;;4.55;;
72132;SDS011;60008;50.826;6.896;2023-05-07T14:54:55;9.65;;;5.35;;
72132;SDS011;60008;50.826;6.896;2023-05-07T14:57:40;10.27;;;5.75;;
72132;SDS011;60008;50.826;6.896;2023-05-07T15:00:25;7.97;;;5.20;;
72132;SDS011;60008;50.826;6.896;2023-05-07T15:03:10;10.38;;;5.85;;
72132;SDS011;60008;50.826;6.896;2023-05-07T15:05:55;9.18;;;6.00;;
72132;SDS011;60008;50.826;6.896;2023-05-07T15:08:40;8.55;;;5.50;;
72132;SDS011;60008;50.826;6.896;2023-05-07T15:11:25;10.10;;;5.93;;
72132;SDS011;60008;50.826;6.896;2023-05-07T15:14:11;8.17;;;5.40;;
72132;SDS011;60008;50.826;6.896;2023-05-07T15:16:55;8.55;;;6.18;;
72132;SDS011;60008;50.826;6.896;2023-05-07T15:19:40;10.45;;;6.00;;
72132;SDS011;60008;50.826;6.896;2023-05-07T15:22:25;8.77;;;5.03;;
72132;SDS011;60008;50.826;6.896;2023-05-07T15:25:10;7.28;;;4.80;;
72132;SDS011;60008;50.826;6.896;2023-05-07T15:27:56;8.30;;;4.77;;
72132;SDS011;60008;50.826;6.896;2023-05-07T15:30:41;7.95;;;3.88;;
72132;SDS011;60008;50.826;6.896;2023-05-07T15:33:26;6.40;;;3.40;;
72132;SDS011;60008;50.826;6.896;2023-05-07T15:36:11;5.63;;;3.20;;
72132;SDS011;60008;50.826;6.896;2023-05-07T15:38:56;4.60;;;2.85;;
72132;SDS011;60008;50.826;6.896;2023-05-07T15:41:42;3.70;;;2.27;;
72132;SDS011;60008;50.826;6.896;2023-05-07T15:44:27;5.10;;;2.00;;
72132;SDS011;60008;50.826;6.896;2023-05-07T15:47:13;4.65;;;2.60;;
72132;SDS011;60008;50.826;6.896;2023-05-07T15:49:59;3.85;;;2.22;;
72132;SDS011;60008;50.826;6.896;2023-05-07T15:52:44;4.05;;;2.25;;
72132;SDS011;60008;50.826;6.896;2023-05-07T15:55:31;6.80;;;2.50;;
72132;SDS011;60008;50.826;6.896;2023-05-07T15:58:18;3.08;;;2.10;;
72132;SDS011;60008;50.826;6.896;2023-05-07T16:01:04;5.43;;;2.45;;
72132;SDS011;60008;50.826;6.896;2023-05-07T16:03:49;5.68;;;2.50;;
72132;SDS011;60008;50.826;6.896;2023-05-07T16:06:34;7.43;;;2.30;;
72132;SDS011;60008;50.826;6.896;2023-05-07T16:09:19;6.73;;;2.17;;
72132;SDS011;60008;50.826;6.896;2023-05-07T16:12:04;4.40;;;2.30;;
72132;SDS011;60008;50.826;6.896;2023-05-07T16:14:49;7.55;;;2.97;;
72132;SDS011;60008;50.826;6.896;2023-05-07T16:17:35;7.93;;;3.38;;
72132;SDS011;60008;50.826;6.896;2023-05-07T16:20:21;5.18;;;2.25;;
72132;SDS011;60008;50.826;6.896;2023-05-07T16:23:06;4.67;;;2.10;;
72132;SDS011;60008;50.826;6.896;2023-05-07T16:25:52;3.80;;;2.28;;
72132;SDS011;60008;50.826;6.896;2023-05-07T16:28:37;4.40;;;2.20;;
72132;SDS011;60008;50.826;6.896;2023-05-07T16:31:22;5.05;;;2.53;;
72132;SDS011;60008;50.826;6.896;2023-05-07T16:34:07;3.45;;;2.20;;
72132;SDS011;60008;50.826;6.896;2023-05-07T16:36:52;3.03;;;1.60;;
72132;SDS011;60008;50.826;6.896;2023-05-07T16:39:37;5.85;;;1.70;;
72132;SDS011;60008;50.826;6.896;2023-05-07T16:42:22;5.60;;;2.35;;
72132;SDS011;60008;50.826;6.896;2023-05-07T16:45:07;3.05;;;1.88;;
72132;SDS011;60008;50.826;6.896;2023-05-07T16:47:53;5.13;;;2.00;;
72132;SDS011;60008;50.826;6.896;2023-05-07T16:50:38;5.13;;;2.20;;
72132;SDS011;60008;50.826;6.896;2023-05-07T16:53:24;6.00;;;2.78;;
72132;SDS011;60008;50.826;6.896;2023-05-07T16:56:09;5.30;;;2.30;;